Angy R — C6ZD5 — position and weather

sailwx.info

Track history (hours):
 
Tides and Currents Weather Stations Pressure Air Temp Water Temp Dewpoint Dewpoint Depression Visibility Wind Speed Wind Dir Waves Ship Positions

Angy R

Last reported at 2018-Jan-18 09:59 UTC. Time now 2018-Jan-18 10:22 UTC.
Position N 51°03' E 002°16'.

Length 186 m; draft 9.8 m.

Type: Cargo ship. MMSI: 311053100.

Date/timePositionNaut miles runAvg speedWind from/ knotsBaromVisibWave heightAir tempDewpointWater temp
2018-Jan-18 09:59N 51°03' E 002°16'0 0.0
2018-Jan-18 09:17N 51°03' E 002°16'0 0.0
2018-Jan-18 08:56N 51°03' E 002°16'0 0.0
2018-Jan-18 08:30N 51°03' E 002°16'0 0.0
2018-Jan-18 08:00N 51°03' E 002°16'0 0.0
2018-Jan-18 07:29N 51°03' E 002°16'0 0.0
2018-Jan-18 06:59N 51°03' E 002°16'0 0.0
2018-Jan-18 06:30N 51°03' E 002°16'0 0.0
2018-Jan-18 06:00N 51°03' E 002°16'0 0.0
2018-Jan-18 05:30N 51°03' E 002°16'0 0.0
2018-Jan-18 05:00N 51°03' E 002°16'0 0.0
2018-Jan-18 04:30N 51°03' E 002°16'0 0.0
2018-Jan-18 03:56N 51°03' E 002°16'0 0.0
2018-Jan-18 03:29N 51°03' E 002°16'0 0.0
2018-Jan-18 02:59N 51°03' E 002°16'0 0.0
2018-Jan-18 02:29N 51°03' E 002°16'0 0.0
2018-Jan-18 01:56N 51°03' E 002°16'0 0.0
2018-Jan-18 01:26N 51°03' E 002°16'0 0.0
2018-Jan-18 00:53N 51°03' E 002°16'0 0.0
2018-Jan-17 23:59N 51°03' E 002°16'0 0.0
2018-Jan-17 23:56N 51°03' E 002°16'  
2018-Jan-12 14:47N 51°03' E 002°16'0 0.0
2018-Jan-12 14:29N 51°03' E 002°16'0 0.0
2018-Jan-12 13:50N 51°03' E 002°16'0 0.0
2018-Jan-12 13:29N 51°03' E 002°16'0 0.0
2018-Jan-12 12:59N 51°03' E 002°16'0 0.0
2018-Jan-12 12:30N 51°03' E 002°16'0 0.3
2018-Jan-12 12:00N 51°03' E 002°17'2 4.9
2018-Jan-12 11:30N 51°03' E 002°20'0 0.1
2018-Jan-12 11:00N 51°03' E 002°21'1 1.4
2018-Jan-12 10:31N 51°04' E 002°21'4 8.4
2018-Jan-12 10:00N 51°04' E 002°14'714.3
2018-Jan-12 09:31N 51°03' E 002°03'714.8
2018-Jan-12 09:00N 51°02' E 001°51'1 2.6
2018-Jan-12 08:31N 51°03' E 001°50'1 1.0
2018-Jan-12 07:58N 51°03' E 001°49'0 0.1
2018-Jan-12 07:28N 51°03' E 001°49'0 0.0
2018-Jan-12 06:58N 51°03' E 001°49'0 0.2
2018-Jan-12 06:28N 51°03' E 001°49'1 1.2
2018-Jan-12 06:01N 51°03' E 001°48'1 2.3
2018-Jan-12 05:30N 51°03' E 001°46'2 4.1
2018-Jan-12 05:01N 51°04' E 001°43'3 5.8
2018-Jan-12 04:31N 51°06' E 001°40'4 8.3
2018-Jan-12 04:01N 51°10' E 001°43'714.8
2018-Jan-12 03:30N 51°17' E 001°49'815.2
2018-Jan-12 03:00N 51°24' E 001°54'714.9
2018-Jan-12 02:30N 51°29' E 002°01'714.6
2018-Jan-12 02:00N 51°35' E 002°09'714.4
2018-Jan-12 01:30N 51°40' E 002°17'813.9
2018-Jan-12 00:57N 51°46' E 002°26'2712.8
2018-Jan-11 22:50N 52°02' E 003°01'1613.2
2018-Jan-11 21:39N 52°03' E 003°26'213.1
2018-Jan-11 21:28N 52°03' E 003°30'613.5
2018-Jan-11 21:00N 52°03' E 003°40'713.5
2018-Jan-11 20:30N 52°03' E 003°51'510.3
2018-Jan-11 20:00N 52°01' E 003°59'612.3
2018-Jan-11 19:30N 51°58' E 004°07'1 1.8
2018-Jan-11 19:00N 51°57' E 004°08'0 0.0
2018-Jan-11 18:30N 51°57' E 004°08'0 0.0
2018-Jan-11 18:00N 51°57' E 004°08'0 0.0
2018-Jan-11 17:27N 51°57' E 004°08'0 0.0
2018-Jan-11 17:00N 51°57' E 004°08'0 0.0
2018-Jan-11 16:30N 51°57' E 004°08'0 0.0
2018-Jan-11 16:00N 51°57' E 004°08'0 0.0
2018-Jan-11 15:30N 51°57' E 004°08'0 0.0
2018-Jan-11 15:00N 51°57' E 004°08'0 0.0
2018-Jan-11 14:30N 51°57' E 004°08'0 0.0
2018-Jan-11 13:57N 51°57' E 004°08'0 0.0
2018-Jan-11 13:30N 51°57' E 004°08'0 0.0
2018-Jan-11 13:00N 51°57' E 004°08'0 0.0
2018-Jan-11 12:30N 51°57' E 004°08'0 0.0
2018-Jan-11 12:00N 51°57' E 004°08'0 0.0
2018-Jan-11 11:30N 51°57' E 004°08'0 0.0
2018-Jan-11 11:00N 51°57' E 004°08'0 0.0
2018-Jan-11 10:30N 51°57' E 004°08'0 0.0
2018-Jan-11 10:00N 51°57' E 004°08'0 0.0
2018-Jan-11 09:30N 51°57' E 004°08'0 0.0
2018-Jan-11 09:00N 51°57' E 004°08'0 0.0
2018-Jan-11 08:30N 51°57' E 004°08'0 0.0
2018-Jan-11 08:00N 51°57' E 004°08'0 0.0
2018-Jan-11 07:30N 51°57' E 004°08'0 0.0
2018-Jan-11 07:00N 51°57' E 004°08'0 0.0
2018-Jan-11 06:30N 51°57' E 004°08'0 0.0
2018-Jan-11 06:00N 51°57' E 004°08'0 0.0
2018-Jan-11 05:30N 51°57' E 004°08'0 0.0
2018-Jan-11 05:00N 51°57' E 004°08'0 0.0
2018-Jan-11 04:30N 51°57' E 004°08'0 0.0
2018-Jan-11 04:00N 51°57' E 004°08'0 0.0
2018-Jan-11 03:30N 51°57' E 004°08'0 0.0
2018-Jan-11 03:00N 51°57' E 004°08'0 0.0
2018-Jan-11 02:30N 51°57' E 004°08'0 0.0
2018-Jan-11 02:00N 51°57' E 004°08'0 0.0
2018-Jan-11 01:30N 51°57' E 004°08'0 0.0
2018-Jan-11 01:00N 51°57' E 004°08'0 0.0
2018-Jan-11 00:30N 51°57' E 004°08'0 0.0
2018-Jan-11 00:00N 51°57' E 004°08'0 0.0
2018-Jan-10 23:30N 51°57' E 004°08'0 0.0
2018-Jan-10 23:00N 51°57' E 004°08'0 0.0
2018-Jan-10 22:30N 51°57' E 004°08'0 0.0
2018-Jan-10 22:00N 51°57' E 004°08'0 0.0
2018-Jan-10 21:30N 51°57' E 004°08'0 0.0
2018-Jan-10 21:00N 51°57' E 004°08'0 0.0
2018-Jan-10 20:30N 51°57' E 004°08'0 0.0
2018-Jan-10 20:00N 51°57' E 004°08'0 0.0
2018-Jan-10 19:30N 51°57' E 004°08'0 0.0
2018-Jan-10 19:00N 51°57' E 004°08'0 0.0
2018-Jan-10 18:30N 51°57' E 004°08'0 0.0
2018-Jan-10 18:00N 51°57' E 004°08'0 0.0
2018-Jan-10 17:30N 51°57' E 004°08'0 0.0
2018-Jan-10 17:00N 51°57' E 004°08'0 0.0
2018-Jan-10 16:30N 51°57' E 004°08'0 0.0
2018-Jan-10 16:00N 51°57' E 004°08'0 0.0
2018-Jan-10 15:30N 51°57' E 004°08'0 0.0
2018-Jan-10 15:00N 51°57' E 004°08'0 0.0
2018-Jan-10 14:30N 51°57' E 004°08'0 0.0
2018-Jan-10 14:00N 51°57' E 004°08'0 0.0
2018-Jan-10 13:30N 51°57' E 004°08'0 0.0
2018-Jan-10 13:00N 51°57' E 004°08'0 0.0
2018-Jan-10 12:30N 51°57' E 004°08'0 0.0
2018-Jan-10 12:00N 51°57' E 004°08'0 0.0
2018-Jan-10 11:30N 51°57' E 004°08'0 0.0
2018-Jan-10 11:00N 51°57' E 004°08'0 0.0
2018-Jan-10 10:30N 51°57' E 004°08'0 0.0
2018-Jan-10 10:00N 51°57' E 004°08'0 0.0
2018-Jan-10 09:30N 51°57' E 004°08'0 0.0
2018-Jan-10 09:00N 51°57' E 004°08'0 0.0
2018-Jan-10 08:30N 51°57' E 004°08'0 0.0
2018-Jan-10 08:00N 51°57' E 004°08'0 0.0
2018-Jan-10 07:30N 51°57' E 004°08'0 0.0
2018-Jan-10 07:00N 51°57' E 004°08'0 0.0
2018-Jan-10 06:30N 51°57' E 004°08'0 0.0
2018-Jan-10 05:57N 51°57' E 004°08'0 0.0
2018-Jan-10 05:30N 51°57' E 004°08'0 0.0
2018-Jan-10 05:00N 51°57' E 004°08'0 0.0
2018-Jan-10 04:30N 51°57' E 004°08'0 0.0
2018-Jan-10 04:00N 51°57' E 004°08'0 0.0
2018-Jan-10 03:30N 51°57' E 004°08'0 0.0
2018-Jan-10 03:00N 51°57' E 004°08'0 0.0
2018-Jan-10 02:30N 51°57' E 004°08'0 0.0
2018-Jan-10 02:00N 51°57' E 004°08'0 0.0
2018-Jan-10 01:30N 51°57' E 004°08'0 0.0
2018-Jan-10 01:00N 51°57' E 004°08'0 0.0
2018-Jan-10 00:30N 51°57' E 004°08'0 0.0
2018-Jan-10 00:00N 51°57' E 004°08'0 0.0
2018-Jan-09 23:30N 51°57' E 004°08'0 0.0
2018-Jan-09 23:00N 51°57' E 004°08'0 0.0
2018-Jan-09 22:30N 51°57' E 004°08'0 0.0
2018-Jan-09 22:00N 51°57' E 004°08'0 0.0
2018-Jan-09 21:30N 51°57' E 004°08'0 0.0
2018-Jan-09 21:00N 51°57' E 004°08'0 0.0
2018-Jan-09 20:30N 51°57' E 004°08'0 0.0
2018-Jan-09 20:00N 51°57' E 004°08'0 0.0
2018-Jan-09 19:30N 51°57' E 004°08'0 0.0
2018-Jan-09 19:00N 51°57' E 004°08'0 0.0
2018-Jan-09 18:27N 51°57' E 004°08'0 0.0
2018-Jan-09 18:00N 51°57' E 004°08'0 0.0
2018-Jan-09 17:30N 51°57' E 004°08'0 0.0
2018-Jan-09 17:00N 51°57' E 004°08'0 0.0
2018-Jan-09 16:30N 51°57' E 004°08'0 0.0
2018-Jan-09 16:00N 51°57' E 004°08'0 0.0
2018-Jan-09 15:30N 51°57' E 004°08'0 0.0
2018-Jan-09 15:00N 51°57' E 004°08'0 0.0
2018-Jan-09 14:30N 51°57' E 004°08'0 0.0
2018-Jan-09 14:00N 51°57' E 004°08'0 0.0
2018-Jan-09 13:30N 51°57' E 004°08'0 0.0
2018-Jan-09 13:00N 51°57' E 004°08'0 0.0
2018-Jan-09 12:30N 51°57' E 004°08'0 0.0
2018-Jan-09 12:00N 51°57' E 004°08'0 0.0
2018-Jan-09 11:30N 51°57' E 004°08'0 0.0
2018-Jan-09 11:00N 51°57' E 004°08'0 0.0
2018-Jan-09 10:30N 51°57' E 004°08'0 0.0
2018-Jan-09 10:00N 51°57' E 004°08'0 0.0
2018-Jan-09 09:30N 51°57' E 004°08'0 0.0
2018-Jan-09 09:00N 51°57' E 004°08'0 0.0
2018-Jan-09 08:30N 51°57' E 004°08'0 0.0
2018-Jan-09 08:00N 51°57' E 004°08'0 0.0
2018-Jan-09 07:30N 51°57' E 004°08'0 0.0
2018-Jan-09 07:00N 51°57' E 004°08'0 0.0
2018-Jan-09 06:30N 51°57' E 004°08'0 0.0
2018-Jan-09 06:00N 51°57' E 004°08'0 0.0
2018-Jan-09 05:30N 51°57' E 004°08'0 0.0
2018-Jan-09 05:00N 51°57' E 004°08'0 0.0
2018-Jan-09 04:30N 51°57' E 004°08'0 0.0
2018-Jan-09 04:00N 51°57' E 004°08'0 0.0
2018-Jan-09 03:30N 51°57' E 004°08'0 0.0
2018-Jan-09 03:00N 51°57' E 004°08'0 0.0
2018-Jan-09 02:30N 51°57' E 004°08'0 0.0
2018-Jan-09 02:00N 51°57' E 004°08'0 0.0
2018-Jan-09 01:30N 51°57' E 004°08'0 0.0
2018-Jan-09 01:00N 51°57' E 004°08'0 0.0
2018-Jan-09 00:30N 51°57' E 004°08'0 0.0
2018-Jan-09 00:00N 51°57' E 004°08'0 0.0
2018-Jan-08 23:30N 51°57' E 004°08'0 0.0
2018-Jan-08 23:00N 51°57' E 004°08'0 0.0
2018-Jan-08 22:30N 51°57' E 004°08'0 0.0
2018-Jan-08 22:00N 51°57' E 004°08'0 0.0
2018-Jan-08 21:30N 51°57' E 004°08'0 0.0
2018-Jan-08 21:00N 51°57' E 004°08'0 0.0
2018-Jan-08 20:30N 51°57' E 004°08'0 0.0
2018-Jan-08 20:00N 51°57' E 004°08'0 0.0
2018-Jan-08 19:30N 51°57' E 004°08'0 0.0
2018-Jan-08 19:00N 51°57' E 004°08'0 0.0
2018-Jan-08 18:30N 51°57' E 004°08'0 0.0
2018-Jan-08 18:00N 51°57' E 004°08'0 0.0
2018-Jan-08 17:30N 51°57' E 004°08'0 0.0
2018-Jan-08 17:00N 51°57' E 004°08'0 0.0
2018-Jan-08 16:30N 51°57' E 004°08'0 0.0
2018-Jan-08 16:00N 51°57' E 004°08'0 0.0
2018-Jan-08 15:30N 51°57' E 004°08'0 0.0
2018-Jan-08 15:00N 51°57' E 004°08'0 0.0
2018-Jan-08 14:30N 51°57' E 004°08'0 0.0
2018-Jan-08 14:00N 51°57' E 004°08'0 0.0
2018-Jan-08 13:30N 51°57' E 004°08'0 0.0
2018-Jan-08 13:00N 51°57' E 004°08'0 0.0
2018-Jan-08 12:30N 51°57' E 004°08'0 0.0
2018-Jan-08 12:00N 51°57' E 004°08'0 0.0
2018-Jan-08 11:30N 51°57' E 004°08'0 0.0
2018-Jan-08 11:00N 51°57' E 004°08'0 0.0
2018-Jan-08 10:30N 51°57' E 004°08'0 0.0
2018-Jan-08 10:00N 51°57' E 004°08'  
Track history (hours):
 
Tides and Currents Weather Stations Pressure Air Temp Water Temp Dewpoint Dewpoint Depression Visibility Wind Speed Wind Dir Waves Ship Positions

Angy R

Last reported at 2018-Jan-18 09:59 UTC. Time now 2018-Jan-18 10:22 UTC.
Position N 51°03' E 002°16'.

Length 186 m; draft 9.8 m.

Type: Cargo ship. MMSI: 311053100.

Date/timePositionNaut miles runAvg speedWind from/ knotsBaromVisibWave heightAir tempDewpointWater temp
2018-Jan-18 09:59N 51°03' E 002°16'0 0.0
2018-Jan-18 09:17N 51°03' E 002°16'0 0.0
2018-Jan-18 08:56N 51°03' E 002°16'0 0.0
2018-Jan-18 08:30N 51°03' E 002°16'0 0.0
2018-Jan-18 08:00N 51°03' E 002°16'0 0.0
2018-Jan-18 07:29N 51°03' E 002°16'0 0.0
2018-Jan-18 06:59N 51°03' E 002°16'0 0.0
2018-Jan-18 06:30N 51°03' E 002°16'0 0.0
2018-Jan-18 06:00N 51°03' E 002°16'0 0.0
2018-Jan-18 05:30N 51°03' E 002°16'0 0.0
2018-Jan-18 05:00N 51°03' E 002°16'0 0.0
2018-Jan-18 04:30N 51°03' E 002°16'0 0.0
2018-Jan-18 03:56N 51°03' E 002°16'0 0.0
2018-Jan-18 03:29N 51°03' E 002°16'0 0.0
2018-Jan-18 02:59N 51°03' E 002°16'0 0.0
2018-Jan-18 02:29N 51°03' E 002°16'0 0.0
2018-Jan-18 01:56N 51°03' E 002°16'0 0.0
2018-Jan-18 01:26N 51°03' E 002°16'0 0.0
2018-Jan-18 00:53N 51°03' E 002°16'0 0.0
2018-Jan-17 23:59N 51°03' E 002°16'0 0.0
2018-Jan-17 23:56N 51°03' E 002°16'  
2018-Jan-12 14:47N 51°03' E 002°16'0 0.0
2018-Jan-12 14:29N 51°03' E 002°16'0 0.0
2018-Jan-12 13:50N 51°03' E 002°16'0 0.0
2018-Jan-12 13:29N 51°03' E 002°16'0 0.0
2018-Jan-12 12:59N 51°03' E 002°16'0 0.0
2018-Jan-12 12:30N 51°03' E 002°16'0 0.3
2018-Jan-12 12:00N 51°03' E 002°17'2 4.9
2018-Jan-12 11:30N 51°03' E 002°20'0 0.1
2018-Jan-12 11:00N 51°03' E 002°21'1 1.4
2018-Jan-12 10:31N 51°04' E 002°21'4 8.4
2018-Jan-12 10:00N 51°04' E 002°14'714.3
2018-Jan-12 09:31N 51°03' E 002°03'714.8
2018-Jan-12 09:00N 51°02' E 001°51'1 2.6
2018-Jan-12 08:31N 51°03' E 001°50'1 1.0
2018-Jan-12 07:58N 51°03' E 001°49'0 0.1
2018-Jan-12 07:28N 51°03' E 001°49'0 0.0
2018-Jan-12 06:58N 51°03' E 001°49'0 0.2
2018-Jan-12 06:28N 51°03' E 001°49'1 1.2
2018-Jan-12 06:01N 51°03' E 001°48'1 2.3
2018-Jan-12 05:30N 51°03' E 001°46'2 4.1
2018-Jan-12 05:01N 51°04' E 001°43'3 5.8
2018-Jan-12 04:31N 51°06' E 001°40'4 8.3
2018-Jan-12 04:01N 51°10' E 001°43'714.8
2018-Jan-12 03:30N 51°17' E 001°49'815.2
2018-Jan-12 03:00N 51°24' E 001°54'714.9
2018-Jan-12 02:30N 51°29' E 002°01'714.6
2018-Jan-12 02:00N 51°35' E 002°09'714.4
2018-Jan-12 01:30N 51°40' E 002°17'813.9
2018-Jan-12 00:57N 51°46' E 002°26'2712.8
2018-Jan-11 22:50N 52°02' E 003°01'1613.2
2018-Jan-11 21:39N 52°03' E 003°26'213.1
2018-Jan-11 21:28N 52°03' E 003°30'613.5
2018-Jan-11 21:00N 52°03' E 003°40'713.5
2018-Jan-11 20:30N 52°03' E 003°51'510.3
2018-Jan-11 20:00N 52°01' E 003°59'612.3
2018-Jan-11 19:30N 51°58' E 004°07'1 1.8
2018-Jan-11 19:00N 51°57' E 004°08'0 0.0
2018-Jan-11 18:30N 51°57' E 004°08'0 0.0
2018-Jan-11 18:00N 51°57' E 004°08'0 0.0
2018-Jan-11 17:27N 51°57' E 004°08'0 0.0
2018-Jan-11 17:00N 51°57' E 004°08'0 0.0
2018-Jan-11 16:30N 51°57' E 004°08'0 0.0
2018-Jan-11 16:00N 51°57' E 004°08'0 0.0
2018-Jan-11 15:30N 51°57' E 004°08'0 0.0
2018-Jan-11 15:00N 51°57' E 004°08'0 0.0
2018-Jan-11 14:30N 51°57' E 004°08'0 0.0
2018-Jan-11 13:57N 51°57' E 004°08'0 0.0
2018-Jan-11 13:30N 51°57' E 004°08'0 0.0
2018-Jan-11 13:00N 51°57' E 004°08'0 0.0
2018-Jan-11 12:30N 51°57' E 004°08'0 0.0
2018-Jan-11 12:00N 51°57' E 004°08'0 0.0
2018-Jan-11 11:30N 51°57' E 004°08'0 0.0
2018-Jan-11 11:00N 51°57' E 004°08'0 0.0
2018-Jan-11 10:30N 51°57' E 004°08'0 0.0
2018-Jan-11 10:00N 51°57' E 004°08'0 0.0
2018-Jan-11 09:30N 51°57' E 004°08'0 0.0
2018-Jan-11 09:00N 51°57' E 004°08'0 0.0
2018-Jan-11 08:30N 51°57' E 004°08'0 0.0
2018-Jan-11 08:00N 51°57' E 004°08'0 0.0
2018-Jan-11 07:30N 51°57' E 004°08'0 0.0
2018-Jan-11 07:00N 51°57' E 004°08'0 0.0
2018-Jan-11 06:30N 51°57' E 004°08'0 0.0
2018-Jan-11 06:00N 51°57' E 004°08'0 0.0
2018-Jan-11 05:30N 51°57' E 004°08'0 0.0
2018-Jan-11 05:00N 51°57' E 004°08'0 0.0
2018-Jan-11 04:30N 51°57' E 004°08'0 0.0
2018-Jan-11 04:00N 51°57' E 004°08'0 0.0
2018-Jan-11 03:30N 51°57' E 004°08'0 0.0
2018-Jan-11 03:00N 51°57' E 004°08'0 0.0
2018-Jan-11 02:30N 51°57' E 004°08'0 0.0
2018-Jan-11 02:00N 51°57' E 004°08'0 0.0
2018-Jan-11 01:30N 51°57' E 004°08'0 0.0
2018-Jan-11 01:00N 51°57' E 004°08'0 0.0
2018-Jan-11 00:30N 51°57' E 004°08'0 0.0
2018-Jan-11 00:00N 51°57' E 004°08'0 0.0
2018-Jan-10 23:30N 51°57' E 004°08'0 0.0
2018-Jan-10 23:00N 51°57' E 004°08'0 0.0
2018-Jan-10 22:30N 51°57' E 004°08'0 0.0
2018-Jan-10 22:00N 51°57' E 004°08'0 0.0
2018-Jan-10 21:30N 51°57' E 004°08'0 0.0
2018-Jan-10 21:00N 51°57' E 004°08'0 0.0
2018-Jan-10 20:30N 51°57' E 004°08'0 0.0
2018-Jan-10 20:00N 51°57' E 004°08'0 0.0
2018-Jan-10 19:30N 51°57' E 004°08'0 0.0
2018-Jan-10 19:00N 51°57' E 004°08'0 0.0
2018-Jan-10 18:30N 51°57' E 004°08'0 0.0
2018-Jan-10 18:00N 51°57' E 004°08'0 0.0
2018-Jan-10 17:30N 51°57' E 004°08'0 0.0
2018-Jan-10 17:00N 51°57' E 004°08'0 0.0
2018-Jan-10 16:30N 51°57' E 004°08'0 0.0
2018-Jan-10 16:00N 51°57' E 004°08'0 0.0
2018-Jan-10 15:30N 51°57' E 004°08'0 0.0
2018-Jan-10 15:00N 51°57' E 004°08'0 0.0
2018-Jan-10 14:30N 51°57' E 004°08'0 0.0
2018-Jan-10 14:00N 51°57' E 004°08'0 0.0
2018-Jan-10 13:30N 51°57' E 004°08'0 0.0
2018-Jan-10 13:00N 51°57' E 004°08'0 0.0
2018-Jan-10 12:30N 51°57' E 004°08'0 0.0
2018-Jan-10 12:00N 51°57' E 004°08'0 0.0
2018-Jan-10 11:30N 51°57' E 004°08'0 0.0
2018-Jan-10 11:00N 51°57' E 004°08'0 0.0
2018-Jan-10 10:30N 51°57' E 004°08'0 0.0
2018-Jan-10 10:00N 51°57' E 004°08'0 0.0
2018-Jan-10 09:30N 51°57' E 004°08'0 0.0
2018-Jan-10 09:00N 51°57' E 004°08'0 0.0
2018-Jan-10 08:30N 51°57' E 004°08'0 0.0
2018-Jan-10 08:00N 51°57' E 004°08'0 0.0
2018-Jan-10 07:30N 51°57' E 004°08'0 0.0
2018-Jan-10 07:00N 51°57' E 004°08'0 0.0
2018-Jan-10 06:30N 51°57' E 004°08'0 0.0
2018-Jan-10 05:57N 51°57' E 004°08'0 0.0
2018-Jan-10 05:30N 51°57' E 004°08'0 0.0
2018-Jan-10 05:00N 51°57' E 004°08'0 0.0
2018-Jan-10 04:30N 51°57' E 004°08'0 0.0
2018-Jan-10 04:00N 51°57' E 004°08'0 0.0
2018-Jan-10 03:30N 51°57' E 004°08'0 0.0
2018-Jan-10 03:00N 51°57' E 004°08'0 0.0
2018-Jan-10 02:30N 51°57' E 004°08'0 0.0
2018-Jan-10 02:00N 51°57' E 004°08'0 0.0
2018-Jan-10 01:30N 51°57' E 004°08'0 0.0
2018-Jan-10 01:00N 51°57' E 004°08'0 0.0
2018-Jan-10 00:30N 51°57' E 004°08'0 0.0
2018-Jan-10 00:00N 51°57' E 004°08'0 0.0
2018-Jan-09 23:30N 51°57' E 004°08'0 0.0
2018-Jan-09 23:00N 51°57' E 004°08'0 0.0
2018-Jan-09 22:30N 51°57' E 004°08'0 0.0
2018-Jan-09 22:00N 51°57' E 004°08'0 0.0
2018-Jan-09 21:30N 51°57' E 004°08'0 0.0
2018-Jan-09 21:00N 51°57' E 004°08'0 0.0
2018-Jan-09 20:30N 51°57' E 004°08'0 0.0
2018-Jan-09 20:00N 51°57' E 004°08'0 0.0
2018-Jan-09 19:30N 51°57' E 004°08'0 0.0
2018-Jan-09 19:00N 51°57' E 004°08'0 0.0
2018-Jan-09 18:27N 51°57' E 004°08'0 0.0
2018-Jan-09 18:00N 51°57' E 004°08'0 0.0
2018-Jan-09 17:30N 51°57' E 004°08'0 0.0
2018-Jan-09 17:00N 51°57' E 004°08'0 0.0
2018-Jan-09 16:30N 51°57' E 004°08'0 0.0
2018-Jan-09 16:00N 51°57' E 004°08'0 0.0
2018-Jan-09 15:30N 51°57' E 004°08'0 0.0
2018-Jan-09 15:00N 51°57' E 004°08'0 0.0
2018-Jan-09 14:30N 51°57' E 004°08'0 0.0
2018-Jan-09 14:00N 51°57' E 004°08'0 0.0
2018-Jan-09 13:30N 51°57' E 004°08'0 0.0
2018-Jan-09 13:00N 51°57' E 004°08'0 0.0
2018-Jan-09 12:30N 51°57' E 004°08'0 0.0
2018-Jan-09 12:00N 51°57' E 004°08'0 0.0
2018-Jan-09 11:30N 51°57' E 004°08'0 0.0
2018-Jan-09 11:00N 51°57' E 004°08'0 0.0
2018-Jan-09 10:30N 51°57' E 004°08'0 0.0
2018-Jan-09 10:00N 51°57' E 004°08'0 0.0
2018-Jan-09 09:30N 51°57' E 004°08'0 0.0
2018-Jan-09 09:00N 51°57' E 004°08'0 0.0
2018-Jan-09 08:30N 51°57' E 004°08'0 0.0
2018-Jan-09 08:00N 51°57' E 004°08'0 0.0
2018-Jan-09 07:30N 51°57' E 004°08'0 0.0
2018-Jan-09 07:00N 51°57' E 004°08'0 0.0
2018-Jan-09 06:30N 51°57' E 004°08'0 0.0
2018-Jan-09 06:00N 51°57' E 004°08'0 0.0
2018-Jan-09 05:30N 51°57' E 004°08'0 0.0
2018-Jan-09 05:00N 51°57' E 004°08'0 0.0
2018-Jan-09 04:30N 51°57' E 004°08'0 0.0
2018-Jan-09 04:00N 51°57' E 004°08'0 0.0
2018-Jan-09 03:30N 51°57' E 004°08'0 0.0
2018-Jan-09 03:00N 51°57' E 004°08'0 0.0
2018-Jan-09 02:30N 51°57' E 004°08'0 0.0
2018-Jan-09 02:00N 51°57' E 004°08'0 0.0
2018-Jan-09 01:30N 51°57' E 004°08'0 0.0
2018-Jan-09 01:00N 51°57' E 004°08'0 0.0
2018-Jan-09 00:30N 51°57' E 004°08'0 0.0
2018-Jan-09 00:00N 51°57' E 004°08'0 0.0
2018-Jan-08 23:30N 51°57' E 004°08'0 0.0
2018-Jan-08 23:00N 51°57' E 004°08'0 0.0
2018-Jan-08 22:30N 51°57' E 004°08'0 0.0
2018-Jan-08 22:00N 51°57' E 004°08'0 0.0
2018-Jan-08 21:30N 51°57' E 004°08'0 0.0
2018-Jan-08 21:00N 51°57' E 004°08'0 0.0
2018-Jan-08 20:30N 51°57' E 004°08'0 0.0
2018-Jan-08 20:00N 51°57' E 004°08'0 0.0
2018-Jan-08 19:30N 51°57' E 004°08'0 0.0
2018-Jan-08 19:00N 51°57' E 004°08'0 0.0
2018-Jan-08 18:30N 51°57' E 004°08'0 0.0
2018-Jan-08 18:00N 51°57' E 004°08'0 0.0
2018-Jan-08 17:30N 51°57' E 004°08'0 0.0
2018-Jan-08 17:00N 51°57' E 004°08'0 0.0
2018-Jan-08 16:30N 51°57' E 004°08'0 0.0
2018-Jan-08 16:00N 51°57' E 004°08'0 0.0
2018-Jan-08 15:30N 51°57' E 004°08'0 0.0
2018-Jan-08 15:00N 51°57' E 004°08'0 0.0
2018-Jan-08 14:30N 51°57' E 004°08'0 0.0
2018-Jan-08 14:00N 51°57' E 004°08'0 0.0
2018-Jan-08 13:30N 51°57' E 004°08'0 0.0
2018-Jan-08 13:00N 51°57' E 004°08'0 0.0
2018-Jan-08 12:30N 51°57' E 004°08'0 0.0
2018-Jan-08 12:00N 51°57' E 004°08'0 0.0
2018-Jan-08 11:30N 51°57' E 004°08'0 0.0
2018-Jan-08 11:00N 51°57' E 004°08'0 0.0
2018-Jan-08 10:30N 51°57' E 004°08'0 0.0
2018-Jan-08 10:00N 51°57' E 004°08'  

Dump ship's entire track history